createdAt,value
2018-06-27T00:02:49.239Z,4.22
2018-06-27T00:08:50.110Z,3.75
2018-06-27T00:12:50.850Z,4.2
2018-06-27T00:14:51.538Z,4.36
2018-06-27T00:18:52.263Z,4.4
2018-06-27T00:24:52.956Z,3.99
2018-06-27T00:28:53.656Z,3.8
2018-06-27T00:34:54.435Z,3.86
2018-06-27T00:40:55.166Z,3.87
2018-06-27T00:44:55.994Z,4.14
2018-06-27T00:50:56.668Z,4.09
2018-06-27T00:54:57.439Z,4.05
2018-06-27T01:00:58.132Z,4.13
2018-06-27T01:06:58.923Z,4.49
2018-06-27T01:10:59.690Z,4.11
2018-06-27T01:17:00.361Z,4.12
2018-06-27T01:21:01.088Z,3.71
2018-06-27T01:27:01.812Z,4.19
2018-06-27T01:33:02.502Z,4.09
2018-06-27T01:37:03.442Z,4.15
2018-06-27T01:43:04.348Z,4.07
2018-06-27T01:47:05.009Z,3.85
2018-06-27T01:53:05.744Z,3.55
2018-06-27T01:59:06.550Z,4.26
2018-06-27T02:03:07.267Z,3.8
2018-06-27T02:09:08.100Z,4.35
2018-06-27T02:13:08.820Z,3.9
2018-06-27T02:19:09.527Z,3.89
2018-06-27T02:25:10.419Z,4.04
2018-06-27T02:29:11.197Z,3.69
2018-06-27T02:35:15.895Z,4.02
2018-06-27T02:39:16.614Z,3.94
2018-06-27T02:45:17.661Z,3.72
2018-06-27T02:51:18.421Z,3.87
2018-06-27T02:55:19.194Z,3.72
2018-06-27T03:01:20.035Z,3.94
2018-06-27T03:05:20.697Z,3.94
2018-06-27T03:11:21.506Z,3.89
2018-06-27T03:17:22.321Z,4.1
2018-06-27T03:21:23.042Z,4.08
2018-06-27T03:27:23.932Z,4.17
2018-06-27T03:31:24.681Z,3.82
2018-06-27T03:37:25.398Z,4.15
2018-06-27T03:43:25.998Z,4.31
2018-06-27T03:47:26.735Z,4.27
2018-06-27T03:53:27.382Z,4.29
2018-06-27T03:57:28.069Z,4.08
2018-06-27T03:57:28.078Z,4.08
2018-06-27T03:59:28.794Z,3.71
2018-06-27T04:03:29.590Z,3.71
2018-06-27T04:09:30.598Z,3.98
2018-06-27T04:13:31.419Z,3.93
2018-06-27T04:19:32.136Z,4.51
2018-06-27T04:23:33.140Z,4.69
2018-06-27T04:25:33.837Z,4.39
2018-06-27T04:29:34.517Z,4.13
2018-06-27T04:35:35.297Z,13.69
2018-06-27T04:39:36.059Z,7.84
2018-06-27T04:45:36.903Z,4.27
2018-06-27T04:49:37.770Z,4.21
2018-06-27T04:51:38.476Z,4.13
2018-06-27T04:55:39.212Z,4.07
2018-06-27T05:01:40.093Z,4.84
2018-06-27T05:05:41.004Z,4.28
2018-06-27T05:11:41.899Z,4.96
2018-06-27T05:15:42.559Z,4.47
2018-06-27T05:17:43.755Z,4.3
2018-06-27T05:21:44.595Z,4.26
2018-06-27T05:27:45.385Z,4.82
2018-06-27T05:31:46.164Z,4.26
2018-06-27T05:37:46.983Z,4.94
2018-06-27T05:41:47.798Z,4.68
2018-06-27T05:43:48.459Z,4.67
2018-06-27T05:47:49.251Z,4.48
2018-06-27T05:53:50.118Z,5.46
2018-06-27T05:57:50.873Z,5.31
2018-06-27T06:03:51.804Z,4.91
2018-06-27T06:07:52.517Z,5.21
2018-06-27T06:09:53.203Z,5.77
2018-06-27T06:13:53.949Z,5.61
2018-06-27T06:19:54.748Z,5.74
2018-06-27T06:23:55.488Z,5
2018-06-27T06:29:56.206Z,4.8
2018-06-27T06:33:57.018Z,4.53
2018-06-27T06:35:57.653Z,5.39
2018-06-27T06:39:58.413Z,5.38
2018-06-27T06:45:59.266Z,5.01
2018-06-27T06:49:59.918Z,4.59
2018-06-27T06:56:00.624Z,4.87
2018-06-27T07:00:01.510Z,4.93
2018-06-27T07:02:02.264Z,4.87
2018-06-27T07:06:03.342Z,4.48
2018-06-27T07:12:04.225Z,4.13
2018-06-27T07:16:05.194Z,4.27
2018-06-27T07:22:05.929Z,4.29
2018-06-27T07:26:06.656Z,3.79
2018-06-27T07:28:07.356Z,4.47
2018-06-27T07:32:08.427Z,4.02
2018-06-27T07:38:09.289Z,2.98
2018-06-27T07:42:10.056Z,3.45
2018-06-27T07:48:10.931Z,3.47
2018-06-27T07:52:11.688Z,2.71
2018-06-27T07:54:12.407Z,3.65
2018-06-27T07:58:13.314Z,3.23
2018-06-27T08:04:14.062Z,3.32
2018-06-27T08:08:14.746Z,3.51
2018-06-27T08:14:15.559Z,3.35
2018-06-27T08:18:16.334Z,3.24
2018-06-27T08:20:17.008Z,3.92
2018-06-27T08:24:17.784Z,3.63
2018-06-27T08:30:18.945Z,3.68
2018-06-27T08:34:19.703Z,2.94
2018-06-27T08:40:20.397Z,3.08
2018-06-27T08:44:21.180Z,2.66
2018-06-27T08:46:21.797Z,3.12
2018-06-27T08:50:23.280Z,2.9
2018-06-27T08:56:24.017Z,3.01
2018-06-27T09:00:24.762Z,2.82
2018-06-27T09:06:25.674Z,2.07
2018-06-27T09:10:26.441Z,2.03
2018-06-27T09:12:27.159Z,2.33
2018-06-27T09:16:27.974Z,3.81
2018-06-27T09:22:29.164Z,2.15
2018-06-27T09:26:30.031Z,1.95
2018-06-27T09:32:30.747Z,2.16
2018-06-27T09:38:31.489Z,2.13
2018-06-27T09:42:32.157Z,2.14
2018-06-27T09:48:32.872Z,2.53
2018-06-27T09:52:33.667Z,2.13
2018-06-27T09:58:34.351Z,2.02
2018-06-27T10:04:35.203Z,1.84
2018-06-27T10:08:36.097Z,1.84
2018-06-27T10:14:36.787Z,2.24
2018-06-27T10:18:37.509Z,2.25
2018-06-27T10:24:38.766Z,2.1
2018-06-27T10:30:39.543Z,2.04
2018-06-27T10:34:40.257Z,1.85
2018-06-27T10:40:41.067Z,2.26
2018-06-27T10:44:41.912Z,1.75
2018-06-27T10:50:42.661Z,2.05
2018-06-27T10:56:43.494Z,1.84
2018-06-27T11:00:44.621Z,2.66
2018-06-27T11:06:45.850Z,1.78
2018-06-27T11:10:46.437Z,1.7
2018-06-27T11:16:46.912Z,1.69
2018-06-27T11:22:47.983Z,2.11
2018-06-27T11:26:49.025Z,1.54
2018-06-27T11:32:49.870Z,1.51
2018-06-27T11:36:50.862Z,1.62
2018-06-27T11:38:51.336Z,1.57
2018-06-27T11:42:51.955Z,1.46
2018-06-27T11:48:52.879Z,1.47
2018-06-27T11:52:59.091Z,1.64
2018-06-27T11:59:00.001Z,1.61
2018-06-27T12:03:00.960Z,1.5
2018-06-27T12:09:01.990Z,1.58
2018-06-27T12:15:02.271Z,2.11
2018-06-27T12:19:03.094Z,1.9
2018-06-27T12:25:03.861Z,1.83
2018-06-27T12:29:05.116Z,1.75
2018-06-27T12:31:05.392Z,1.66
2018-06-27T12:35:07.124Z,1.57
2018-06-27T12:41:06.818Z,1.88
2018-06-27T12:45:07.802Z,1.79
2018-06-27T12:51:08.626Z,1.73
2018-06-27T12:55:09.449Z,1.6
2018-06-27T12:57:10.348Z,1.7
2018-06-27T13:01:10.906Z,1.75
2018-06-27T13:07:11.891Z,1.9
2018-06-27T13:11:12.452Z,1.88
2018-06-27T13:17:13.448Z,1.57
2018-06-27T13:21:14.291Z,1.42
2018-06-27T13:23:14.887Z,1.67
2018-06-27T13:27:15.654Z,1.6
2018-06-27T13:33:16.515Z,1.35
2018-06-27T13:37:17.383Z,1.52
2018-06-27T13:43:18.270Z,1.62
2018-06-27T13:47:19.002Z,1.71
2018-06-27T13:49:19.808Z,1.87
2018-06-27T13:53:20.529Z,1.8
2018-06-27T13:59:21.337Z,1.86
2018-06-27T14:03:22.031Z,1.76
2018-06-27T14:09:22.836Z,1.68
2018-06-27T14:13:23.671Z,1.7
2018-06-27T14:15:24.890Z,1.76
2018-06-27T14:19:25.600Z,1.93
2018-06-27T14:25:26.315Z,1.88
2018-06-27T14:29:27.380Z,1.72
2018-06-27T14:35:28.280Z,1.7
2018-06-27T14:39:28.973Z,1.59
2018-06-27T14:41:29.797Z,1.66
2018-06-27T14:45:30.907Z,1.52
2018-06-27T14:51:31.677Z,1.9
2018-06-27T14:55:32.518Z,1.77
2018-06-27T15:01:33.295Z,1.88
2018-06-27T15:07:34.238Z,1.64
2018-06-27T15:11:34.946Z,1.67
2018-06-27T15:17:35.666Z,1.59
2018-06-27T15:21:36.568Z,1.85
2018-06-27T15:27:37.314Z,1.83
2018-06-27T15:33:38.075Z,1.88
2018-06-27T15:37:38.926Z,1.86
2018-06-27T15:43:39.807Z,2.02
2018-06-27T17:59:08.045Z,4.83
2018-06-27T17:59:08.115Z,2.17
2018-06-27T17:59:08.241Z,2.02
2018-06-27T17:59:08.408Z,1.85
2018-06-27T17:59:08.535Z,1.88
2018-06-27T17:59:08.685Z,1.86
2018-06-27T17:59:08.865Z,1.96
2018-06-27T17:59:09.016Z,2.5
2018-06-27T17:59:09.129Z,2.32
2018-06-27T17:59:09.288Z,2.49
2018-06-27T17:59:09.368Z,2.18
2018-06-27T17:59:09.562Z,2.07
2018-06-27T17:59:09.650Z,1.97
2018-06-27T17:59:09.807Z,2.42
2018-06-27T17:59:09.957Z,2.11
2018-06-27T17:59:10.151Z,2.21
2018-06-27T17:59:10.238Z,2.44
2018-06-27T17:59:10.354Z,2.27
2018-06-27T17:59:10.533Z,2.65
2018-06-27T17:59:10.667Z,2.39
2018-06-27T17:59:10.858Z,2.17
2018-06-27T17:59:11.063Z,2.41
2018-06-27T17:59:11.247Z,2.31
2018-06-27T17:59:11.383Z,2.4
2018-06-27T17:59:11.529Z,2.45
2018-06-27T17:59:11.672Z,3.2
2018-06-27T18:05:12.502Z,4.46
2018-06-27T18:09:13.238Z,4.86
2018-06-27T18:15:14.589Z,14.46
2018-06-27T18:19:15.509Z,14.78
2018-06-27T18:25:16.360Z,2.62
2018-06-27T18:35:19.836Z,2.39
2018-06-27T18:35:19.997Z,2.21
2018-06-27T18:41:28.678Z,1.9
2018-06-27T18:45:32.835Z,2.06
2018-06-27T18:51:34.021Z,1.73
2018-06-27T18:55:34.800Z,1.61
2018-06-27T18:57:35.615Z,1.94
2018-06-27T19:01:36.358Z,1.89
2018-06-27T19:07:37.092Z,1.95
2018-06-27T19:11:37.803Z,2
2018-06-27T19:17:38.614Z,2.07
2018-06-27T19:21:39.298Z,1.81
2018-06-27T19:23:40.146Z,2.09
2018-06-27T19:27:40.873Z,2
2018-06-27T19:33:43.052Z,2.88
2018-06-27T19:37:44.109Z,2.78
2018-06-27T19:43:45.037Z,1.98
2018-06-27T19:47:45.863Z,2.09
2018-06-27T19:49:46.864Z,2.07
2018-06-27T19:53:47.727Z,1.68
2018-06-27T19:59:48.435Z,2.08
2018-06-27T20:03:49.247Z,2.17
2018-06-27T20:09:50.083Z,1.62
2018-06-27T20:13:51.049Z,1.61
2018-06-27T20:15:52.134Z,1.51
2018-06-27T20:19:52.912Z,1.82
2018-06-27T20:25:53.573Z,2.23
2018-06-27T20:29:54.337Z,2.22
2018-06-27T20:35:55.097Z,2.21
2018-06-27T20:39:55.856Z,1.83
2018-06-27T20:41:56.670Z,2.65
2018-06-27T20:45:57.397Z,2.27
2018-06-27T20:51:58.175Z,3.29
2018-06-27T20:55:58.909Z,3.6
2018-06-27T21:01:59.682Z,3.89
2018-06-27T21:08:00.579Z,3.76
2018-06-27T21:12:01.271Z,3.16
2018-06-27T21:18:01.996Z,2.99
2018-06-27T21:22:02.854Z,2.72
2018-06-27T21:28:05.205Z,3.65
2018-06-27T21:34:05.978Z,2.88
2018-06-27T21:38:06.757Z,2.69
2018-06-27T21:44:07.435Z,3.04
2018-06-27T21:48:08.101Z,2.79
2018-06-27T21:54:08.892Z,2.82
2018-06-27T22:00:09.980Z,2.69
2018-06-27T22:04:10.704Z,2.16
2018-06-27T22:10:11.495Z,2.58
2018-06-27T22:14:12.196Z,2.24
2018-06-27T22:20:12.986Z,2.13
2018-06-27T22:26:13.746Z,2.52
2018-06-27T22:30:17.606Z,2.79
2018-06-27T22:36:15.729Z,2.4
2018-06-27T22:40:17.123Z,2.21
2018-06-27T22:46:17.777Z,2.19
2018-06-27T22:52:18.495Z,2.84
2018-06-27T22:56:19.279Z,2.33
2018-06-27T23:02:20.068Z,2.62
2018-06-27T23:06:20.871Z,2.24
2018-06-27T23:12:21.645Z,2.39
2018-06-27T23:18:22.461Z,2.5
2018-06-27T23:22:23.174Z,2.57
2018-06-27T23:28:23.891Z,2.42
2018-06-27T23:32:24.669Z,2.47
2018-06-27T23:34:25.324Z,2.44
2018-06-27T23:38:26.106Z,2.64
2018-06-27T23:44:26.752Z,2.7
2018-06-27T23:48:27.568Z,2.57
2018-06-27T23:54:28.358Z,2.27
2018-06-27T23:58:29.105Z,2.19
